Portada
METAR-TAF:

METAR-TAF

Aeroports :

L'Havana, Cuba

latitud: 22-59N, longitud: 082-24W, altitud: 59 m

Observació

L'informe es va fer fa 54 minuts, a les 11:06 UTC
Vent calma
Temperatura 20°C
Humitat 100%
Pressió 1019 hPa
Visibilitat: 2500 m
Escasses núvols a una alçada de 2500 ft
Boira superficial

METAR: MUHA 121106Z 00000KT 9000 2500SW MIFG FEW025 20/20 Q1019

Hora: 07:00 (12:00 UTC)

Pronòstic

L'informe es va fer fa 1 hora i 0 minuts, a les 11:00 UTC
Pronòstic vàlid del 12 a les 12 UTC al 13 a les 12 UTC
Vent 10 kt del Est
Visibilitat: 8000 m
Escasses núvols a una alçada de 3000 ft
Evolucionant progressivament
l' 13 a les 03 UTC al 13 a les 04 UTC
Vent 3 kt amb direcció variable

TAF: MUHA 121100Z 1212/1312 09010KT 8000 FEW030 BECMG 1303/1304 VRB03KT

Observacions i pronòstics meteorològics de més de 4000 aeroports (METAR i TAF).

Les estacions disponibles són els punts grocs i vermells al mapa.

Posi el ratolí al punt desitjat per veure el nom de l'estació.

Feu clic per veure les observacions i els pronòstics meteorològics.

Per canviar el mapa: feu clic els botons verds amb una creu de color negre per apropar; al botó verd amb un guió per allunyar la imatge; o en les fletxes verdes per a mapes adjacents.


METAR-TAF: